Saturday, January 19, 2019, 7:48 PM EST
Back to Local

KCON, Concord, Concord Municipal Airport

Location: Concord, NH, United States Lat: 43.195
Local Time: 7:48 PM EST ( 0:48 GMT) Lon: -71.501
Time Zone: US/Eastern Elev: 344 ft

Show me the last for .
Show Coded

Time T Td Feel RH Dir Speed Gust Alt SLP Vis Weather Sky Remarks
2019-01-19 19:38 23 18 16 79 90° 6 - 30.23 - 2 -SN BKN021 OVC026 None
2019-01-19 18:51 24 18 10 77 110° 7 20 30.22 30.23 10 OVC020 6-hr Precip Total (7pm): 0.00"
6-hr Min Temp (7pm): 23.0°F
6-hr Max Temp (7pm): 26.1°F
2019-01-19 18:38 23 18 14 79 90° 8 - 30.21 - 10 BKN020 BKN027 OVC038 None
2019-01-19 17:51 23 16 15 74 40° 7 - 30.24 30.25 10 BKN040 OVC049 1-hr Precip Total: Trace
2019-01-19 17:19 24 16 16 70 350° 7 - 30.26 - 9 SCT025 OVC045 1-hr Precip Total: Trace
2019-01-19 17:08 25 16 19 68 30° 5 - 30.26 - 4 -SN BKN029 OVC043 None
2019-01-19 16:51 25 11 - 54 - Calm - 30.26 30.27 10 OVC035 None
2019-01-19 15:51 26 10 - 50 - Calm - 30.26 30.28 10 OVC042 None
2019-01-19 14:51 26 9 - 47 - Calm - 30.24 30.26 10 OVC050 None
2019-01-19 13:51 25 10 - 52 - Calm - 30.23 30.25 10 OVC080 None
2019-01-19 12:51 26 11 21 52 340° 5 - 30.25 30.27 10 OVC090 6-hr Min Temp (1pm): 19.0°F
6-hr Max Temp (1pm): 26.1°F
2019-01-19 11:51 26 11 18 52 360° 7 - 30.30 30.32 10 OVC110 None
2019-01-19 10:51 23 11 16 59 300° 6 - 30.32 30.34 10 OVC110 None
2019-01-19 09:51 23 11 14 59 350° 8 - 30.31 30.33 10 OVC110 None
2019-01-19 08:51 21 11 13 64 330° 6 - 30.31 30.32 10 SCT040 BKN110 None
2019-01-19 07:51 20 11 12 67 340° 6 - 30.27 30.29 10 BKN039 None
2019-01-19 06:51 20 10 13 64 340° 5 - 30.26 30.28 10 CLR 6-hr Min Temp (7am): 19.0°F
6-hr Max Temp (7am): 26.1°F
2019-01-19 05:51 20 10 12 64 350° 6 - 30.23 30.25 10 CLR None
2019-01-19 04:51 21 13 10 70 350° 10 - 30.21 30.23 10 SCT042 None
2019-01-19 03:51 24 15 14 68 340° 9 - 30.19 30.20 10 BKN042 None
2019-01-19 02:51 26 18 18 70 350° 8 - 30.16 30.17 10 OVC040 None
2019-01-19 01:51 23 20 17 87 320° 5 - 30.13 30.14 10 OVC037 None
2019-01-19 00:51 22 18 - 84 - Calm - 30.10 30.12 10 SCT048 6-hr Min Temp (1am): 21.0°F
6-hr Max Temp (1am): 30.9°F
2019-01-18 23:51 26 20 22 77 330° 3 - 30.09 30.11 10 SCT048 24-hr Min Temp (12am): 14.0°F
24-hr Max Temp (12am): 30.9°F
2019-01-18 22:51 29 22 23 74 330° 6 - 30.07 30.09 10 CLR None
2019-01-18 21:51 30 24 24 78 280° 6 - 30.05 30.07 10 OVC044 None
2019-01-18 20:51 23 20 - 87 - Calm - 30.03 30.05 10 OVC039 None
2019-01-18 19:51 22 19 - 88 - Calm - 30.04 30.05 10 CLR None

Support USWX by starting your Amazon purchase here.